Hauptseite
METAR-TAF:

METAR-TAF

Flughäfen :

Flughafen Friedrichshafen

Friedrichshafen, Deutschland

Breite: 47-40N, Länge: 009-31E, Höhe: 416 m

Beobachtung

Neuester Wetterbericht von vor 44 Minuten, um 18:50 UTC
Wind 4 kt aus Nord/Nordost, variierte zwischen Nord und Ost/Nordost
Temperatur 19°C
Luftfeuchtigkeit 60%
Luftdruck 1018 hPa
Sichtweite 10 km oder mehr

METAR: EDNY 051850Z 03004KT 010V070 9999 // NSC 19/11 Q1018

Zeit: 21:34 (19:34 UTC)

Prognose

Neuester Wetterbericht von vor 2 Stunden und 34 Minuten, um 17:00 UTC
Gültige Prognose vom 05 um 18 UTC bis 06 um 18 UTC
Wind 5 kt aus Nordost
Sichtweite 10 km oder mehr
keine Wolken unter 1500 m und keine Kumulonimbus oder Gewitterwolken
Zeitweise
vom 06 um 08 UTC bis 06 um 18 UTC
Wind 13 kt aus Nordost

TAF: EDNY 051700Z 0518/0618 04005KT CAVOK TEMPO 0608/0618 04013KT

Wetterbeobachtungen und Prognosen von mehr als 4000 Flughäfen (METAR und TAF Bericht).

Die verfügbaren Stationen werden durch gelbe und rote Markierungen auf der Karte dargestellt.

Führen Sie die Maus auf sie, um den Namen der Station zu sehen.

Darauf klicken, um die Beobachtung von Wetterbeobachtungen und Prognosen zu sehen.

Um die Karte zu ändern : klicken Sie auf den grünen Tasten mit einem schwarzen Kreuz Zum Vergrößern, auf den grünen Button mit einem Gedankenstrich zu verkleinern, oder auf die grünen Pfeile für benachbarte Karten.


METAR-TAF: